sensor_id;sensor_type;location;lat;lon;timestamp;P1;durP1;ratioP1;P2;durP2;ratioP2
76593;SDS011;65482;50.240;14.302;2023-12-20T00:01:16;5.70;;;3.53;;
76593;SDS011;65482;50.240;14.302;2023-12-20T00:03:43;5.82;;;3.58;;
76593;SDS011;65482;50.240;14.302;2023-12-20T00:06:09;6.10;;;3.17;;
76593;SDS011;65482;50.240;14.302;2023-12-20T00:08:35;6.10;;;3.50;;
76593;SDS011;65482;50.240;14.302;2023-12-20T00:11:01;5.28;;;3.45;;
76593;SDS011;65482;50.240;14.302;2023-12-20T00:13:26;8.55;;;3.90;;
76593;SDS011;65482;50.240;14.302;2023-12-20T00:15:52;6.55;;;3.65;;
76593;SDS011;65482;50.240;14.302;2023-12-20T00:18:18;6.82;;;3.72;;
76593;SDS011;65482;50.240;14.302;2023-12-20T00:20:44;6.28;;;3.55;;
76593;SDS011;65482;50.240;14.302;2023-12-20T00:23:09;6.10;;;3.53;;
76593;SDS011;65482;50.240;14.302;2023-12-20T00:25:35;5.38;;;3.35;;
76593;SDS011;65482;50.240;14.302;2023-12-20T00:28:00;5.78;;;3.50;;
76593;SDS011;65482;50.240;14.302;2023-12-20T00:30:27;6.13;;;3.38;;
76593;SDS011;65482;50.240;14.302;2023-12-20T00:32:53;5.72;;;3.63;;
76593;SDS011;65482;50.240;14.302;2023-12-20T00:35:19;5.80;;;3.70;;
76593;SDS011;65482;50.240;14.302;2023-12-20T00:37:45;6.32;;;3.60;;
76593;SDS011;65482;50.240;14.302;2023-12-20T00:40:10;3.88;;;2.90;;
76593;SDS011;65482;50.240;14.302;2023-12-20T00:42:36;5.53;;;3.33;;
76593;SDS011;65482;50.240;14.302;2023-12-20T00:45:03;6.20;;;3.70;;
76593;SDS011;65482;50.240;14.302;2023-12-20T00:47:30;5.70;;;3.83;;
76593;SDS011;65482;50.240;14.302;2023-12-20T00:49:56;7.55;;;3.50;;
76593;SDS011;65482;50.240;14.302;2023-12-20T00:52:22;7.60;;;3.47;;
76593;SDS011;65482;50.240;14.302;2023-12-20T00:54:48;5.68;;;3.45;;
76593;SDS011;65482;50.240;14.302;2023-12-20T00:57:14;6.75;;;3.60;;
76593;SDS011;65482;50.240;14.302;2023-12-20T00:59:40;6.30;;;3.20;;
76593;SDS011;65482;50.240;14.302;2023-12-20T01:02:06;7.38;;;3.97;;
76593;SDS011;65482;50.240;14.302;2023-12-20T01:04:31;6.55;;;3.42;;
76593;SDS011;65482;50.240;14.302;2023-12-20T01:06:57;6.43;;;3.33;;
76593;SDS011;65482;50.240;14.302;2023-12-20T01:09:23;7.57;;;4.22;;
76593;SDS011;65482;50.240;14.302;2023-12-20T01:11:52;7.85;;;4.18;;
76593;SDS011;65482;50.240;14.302;2023-12-20T01:14:18;5.90;;;3.72;;
76593;SDS011;65482;50.240;14.302;2023-12-20T01:16:44;5.88;;;3.20;;
76593;SDS011;65482;50.240;14.302;2023-12-20T01:19:09;5.97;;;3.80;;
76593;SDS011;65482;50.240;14.302;2023-12-20T01:21:35;5.30;;;3.45;;
76593;SDS011;65482;50.240;14.302;2023-12-20T01:24:01;6.60;;;3.78;;
76593;SDS011;65482;50.240;14.302;2023-12-20T01:26:26;6.75;;;3.95;;
76593;SDS011;65482;50.240;14.302;2023-12-20T01:28:52;6.75;;;3.63;;
76593;SDS011;65482;50.240;14.302;2023-12-20T01:31:18;6.03;;;3.88;;
76593;SDS011;65482;50.240;14.302;2023-12-20T01:33:44;6.07;;;4.07;;
76593;SDS011;65482;50.240;14.302;2023-12-20T01:36:10;6.10;;;3.83;;
76593;SDS011;65482;50.240;14.302;2023-12-20T01:38:36;6.63;;;4.15;;
76593;SDS011;65482;50.240;14.302;2023-12-20T01:41:02;5.28;;;3.63;;
76593;SDS011;65482;50.240;14.302;2023-12-20T01:43:27;6.07;;;3.60;;
76593;SDS011;65482;50.240;14.302;2023-12-20T01:45:54;6.43;;;4.05;;
76593;SDS011;65482;50.240;14.302;2023-12-20T01:48:24;6.30;;;3.80;;
76593;SDS011;65482;50.240;14.302;2023-12-20T01:50:51;5.35;;;3.90;;
76593;SDS011;65482;50.240;14.302;2023-12-20T01:53:17;7.65;;;4.10;;
76593;SDS011;65482;50.240;14.302;2023-12-20T01:55:45;6.97;;;3.80;;
76593;SDS011;65482;50.240;14.302;2023-12-20T01:58:13;6.20;;;3.78;;
76593;SDS011;65482;50.240;14.302;2023-12-20T02:00:40;7.95;;;4.40;;
76593;SDS011;65482;50.240;14.302;2023-12-20T02:03:05;6.70;;;3.95;;
76593;SDS011;65482;50.240;14.302;2023-12-20T02:05:32;8.10;;;4.10;;
76593;SDS011;65482;50.240;14.302;2023-12-20T02:08:00;7.82;;;4.35;;
76593;SDS011;65482;50.240;14.302;2023-12-20T02:10:27;5.63;;;4.07;;
76593;SDS011;65482;50.240;14.302;2023-12-20T02:12:54;7.93;;;4.15;;
76593;SDS011;65482;50.240;14.302;2023-12-20T02:15:20;8.70;;;4.35;;
76593;SDS011;65482;50.240;14.302;2023-12-20T02:17:46;5.85;;;4.00;;
76593;SDS011;65482;50.240;14.302;2023-12-20T02:20:13;7.00;;;4.03;;
76593;SDS011;65482;50.240;14.302;2023-12-20T02:22:38;7.72;;;3.92;;
76593;SDS011;65482;50.240;14.302;2023-12-20T02:25:04;6.50;;;4.03;;
76593;SDS011;65482;50.240;14.302;2023-12-20T02:27:29;6.32;;;3.97;;
76593;SDS011;65482;50.240;14.302;2023-12-20T02:29:56;6.85;;;4.20;;
76593;SDS011;65482;50.240;14.302;2023-12-20T02:32:21;7.78;;;4.30;;
76593;SDS011;65482;50.240;14.302;2023-12-20T02:34:51;6.32;;;3.60;;
76593;SDS011;65482;50.240;14.302;2023-12-20T02:37:16;6.32;;;4.07;;
76593;SDS011;65482;50.240;14.302;2023-12-20T02:39:43;6.82;;;4.40;;
76593;SDS011;65482;50.240;14.302;2023-12-20T02:42:09;7.95;;;4.13;;
76593;SDS011;65482;50.240;14.302;2023-12-20T02:44:35;6.93;;;4.05;;
76593;SDS011;65482;50.240;14.302;2023-12-20T02:47:01;6.63;;;3.72;;
76593;SDS011;65482;50.240;14.302;2023-12-20T02:49:27;5.07;;;3.10;;
76593;SDS011;65482;50.240;14.302;2023-12-20T02:51:53;5.88;;;4.00;;
76593;SDS011;65482;50.240;14.302;2023-12-20T02:54:18;6.75;;;3.55;;
76593;SDS011;65482;50.240;14.302;2023-12-20T02:56:44;5.90;;;3.90;;
76593;SDS011;65482;50.240;14.302;2023-12-20T02:59:09;5.72;;;3.47;;
76593;SDS011;65482;50.240;14.302;2023-12-20T03:01:35;5.25;;;3.45;;
76593;SDS011;65482;50.240;14.302;2023-12-20T03:04:06;5.13;;;3.22;;
76593;SDS011;65482;50.240;14.302;2023-12-20T03:06:32;5.70;;;3.80;;
76593;SDS011;65482;50.240;14.302;2023-12-20T03:08:57;5.57;;;3.70;;
76593;SDS011;65482;50.240;14.302;2023-12-20T03:11:26;6.22;;;3.75;;
76593;SDS011;65482;50.240;14.302;2023-12-20T03:13:52;6.60;;;3.88;;
76593;SDS011;65482;50.240;14.302;2023-12-20T03:16:18;5.85;;;3.65;;
76593;SDS011;65482;50.240;14.302;2023-12-20T03:18:44;5.00;;;3.45;;
76593;SDS011;65482;50.240;14.302;2023-12-20T03:21:09;5.80;;;3.70;;
76593;SDS011;65482;50.240;14.302;2023-12-20T03:23:35;5.18;;;3.45;;
76593;SDS011;65482;50.240;14.302;2023-12-20T03:26:00;7.60;;;3.75;;
76593;SDS011;65482;50.240;14.302;2023-12-20T03:28:26;3.65;;;2.90;;
76593;SDS011;65482;50.240;14.302;2023-12-20T03:30:52;5.72;;;3.28;;
76593;SDS011;65482;50.240;14.302;2023-12-20T03:33:18;5.43;;;3.28;;
76593;SDS011;65482;50.240;14.302;2023-12-20T03:35:44;6.53;;;3.67;;
76593;SDS011;65482;50.240;14.302;2023-12-20T03:38:09;5.80;;;3.67;;
76593;SDS011;65482;50.240;14.302;2023-12-20T03:40:35;4.70;;;3.13;;
76593;SDS011;65482;50.240;14.302;2023-12-20T03:43:00;5.55;;;3.70;;
76593;SDS011;65482;50.240;14.302;2023-12-20T03:45:26;7.25;;;3.80;;
76593;SDS011;65482;50.240;14.302;2023-12-20T03:47:52;5.15;;;3.50;;
76593;SDS011;65482;50.240;14.302;2023-12-20T03:50:23;7.72;;;4.03;;
76593;SDS011;65482;50.240;14.302;2023-12-20T03:52:49;6.47;;;3.88;;
76593;SDS011;65482;50.240;14.302;2023-12-20T03:55:14;4.90;;;3.50;;
76593;SDS011;65482;50.240;14.302;2023-12-20T03:57:40;5.47;;;4.20;;
76593;SDS011;65482;50.240;14.302;2023-12-20T04:00:09;5.10;;;3.50;;
76593;SDS011;65482;50.240;14.302;2023-12-20T04:02:38;4.57;;;3.05;;
76593;SDS011;65482;50.240;14.302;2023-12-20T04:05:05;4.93;;;3.53;;
76593;SDS011;65482;50.240;14.302;2023-12-20T04:07:31;5.25;;;3.60;;
76593;SDS011;65482;50.240;14.302;2023-12-20T04:09:56;5.78;;;3.50;;
76593;SDS011;65482;50.240;14.302;2023-12-20T04:12:22;3.88;;;2.97;;
76593;SDS011;65482;50.240;14.302;2023-12-20T04:14:47;9.88;;;3.40;;
76593;SDS011;65482;50.240;14.302;2023-12-20T04:17:13;4.82;;;3.33;;
76593;SDS011;65482;50.240;14.302;2023-12-20T04:19:41;4.45;;;3.22;;
76593;SDS011;65482;50.240;14.302;2023-12-20T04:22:07;4.78;;;3.20;;
76593;SDS011;65482;50.240;14.302;2023-12-20T04:24:32;6.60;;;3.88;;
76593;SDS011;65482;50.240;14.302;2023-12-20T04:26:58;5.75;;;3.72;;
76593;SDS011;65482;50.240;14.302;2023-12-20T04:29:23;6.82;;;3.63;;
76593;SDS011;65482;50.240;14.302;2023-12-20T04:31:49;5.38;;;3.50;;
76593;SDS011;65482;50.240;14.302;2023-12-20T04:34:16;8.32;;;3.67;;
76593;SDS011;65482;50.240;14.302;2023-12-20T04:36:42;4.32;;;3.05;;
76593;SDS011;65482;50.240;14.302;2023-12-20T04:39:07;4.63;;;3.10;;
76593;SDS011;65482;50.240;14.302;2023-12-20T04:41:33;5.82;;;3.15;;
76593;SDS011;65482;50.240;14.302;2023-12-20T04:43:59;4.50;;;3.30;;
76593;SDS011;65482;50.240;14.302;2023-12-20T04:46:26;7.80;;;3.10;;
76593;SDS011;65482;50.240;14.302;2023-12-20T04:48:51;4.00;;;2.75;;
76593;SDS011;65482;50.240;14.302;2023-12-20T04:51:17;4.80;;;2.90;;
76593;SDS011;65482;50.240;14.302;2023-12-20T04:53:43;4.60;;;3.00;;
76593;SDS011;65482;50.240;14.302;2023-12-20T04:56:08;5.50;;;2.80;;
76593;SDS011;65482;50.240;14.302;2023-12-20T04:58:34;5.38;;;2.78;;
76593;SDS011;65482;50.240;14.302;2023-12-20T05:01:00;4.72;;;2.90;;
76593;SDS011;65482;50.240;14.302;2023-12-20T05:03:25;6.10;;;2.88;;
76593;SDS011;65482;50.240;14.302;2023-12-20T05:05:51;5.95;;;3.22;;
76593;SDS011;65482;50.240;14.302;2023-12-20T05:08:17;4.85;;;2.90;;
76593;SDS011;65482;50.240;14.302;2023-12-20T05:10:42;4.75;;;2.95;;
76593;SDS011;65482;50.240;14.302;2023-12-20T05:13:08;5.55;;;3.15;;
76593;SDS011;65482;50.240;14.302;2023-12-20T05:15:34;4.68;;;3.13;;
76593;SDS011;65482;50.240;14.302;2023-12-20T05:18:00;4.63;;;3.05;;
76593;SDS011;65482;50.240;14.302;2023-12-20T05:20:27;4.03;;;3.03;;
76593;SDS011;65482;50.240;14.302;2023-12-20T05:22:52;4.82;;;2.80;;
76593;SDS011;65482;50.240;14.302;2023-12-20T05:25:18;5.18;;;3.08;;
76593;SDS011;65482;50.240;14.302;2023-12-20T05:27:44;6.57;;;2.80;;
76593;SDS011;65482;50.240;14.302;2023-12-20T05:30:09;5.93;;;3.17;;
76593;SDS011;65482;50.240;14.302;2023-12-20T05:32:35;4.55;;;3.08;;
76593;SDS011;65482;50.240;14.302;2023-12-20T05:35:01;5.28;;;3.05;;
76593;SDS011;65482;50.240;14.302;2023-12-20T05:37:26;3.75;;;2.40;;
76593;SDS011;65482;50.240;14.302;2023-12-20T05:39:52;3.92;;;2.38;;
76593;SDS011;65482;50.240;14.302;2023-12-20T05:42:17;3.33;;;2.40;;
76593;SDS011;65482;50.240;14.302;2023-12-20T05:44:43;3.53;;;2.40;;
76593;SDS011;65482;50.240;14.302;2023-12-20T05:47:09;3.78;;;2.20;;
76593;SDS011;65482;50.240;14.302;2023-12-20T05:49:34;3.63;;;2.17;;
76593;SDS011;65482;50.240;14.302;2023-12-20T05:52:00;4.03;;;2.15;;
76593;SDS011;65482;50.240;14.302;2023-12-20T05:54:26;3.03;;;2.22;;
76593;SDS011;65482;50.240;14.302;2023-12-20T05:56:51;2.67;;;1.95;;
76593;SDS011;65482;50.240;14.302;2023-12-20T05:59:17;5.70;;;2.40;;
76593;SDS011;65482;50.240;14.302;2023-12-20T06:01:42;4.30;;;2.22;;
76593;SDS011;65482;50.240;14.302;2023-12-20T06:04:08;2.28;;;1.70;;
76593;SDS011;65482;50.240;14.302;2023-12-20T06:06:33;2.17;;;1.63;;
76593;SDS011;65482;50.240;14.302;2023-12-20T06:08:59;2.35;;;1.58;;
76593;SDS011;65482;50.240;14.302;2023-12-20T06:11:25;5.78;;;1.33;;
76593;SDS011;65482;50.240;14.302;2023-12-20T06:13:51;1.80;;;1.40;;
76593;SDS011;65482;50.240;14.302;2023-12-20T06:16:18;1.60;;;1.30;;
76593;SDS011;65482;50.240;14.302;2023-12-20T06:18:44;2.40;;;1.30;;
76593;SDS011;65482;50.240;14.302;2023-12-20T06:21:10;3.15;;;1.20;;
76593;SDS011;65482;50.240;14.302;2023-12-20T06:23:38;1.52;;;1.00;;
76593;SDS011;65482;50.240;14.302;2023-12-20T06:26:04;1.30;;;1.02;;
76593;SDS011;65482;50.240;14.302;2023-12-20T06:28:30;1.80;;;1.10;;
76593;SDS011;65482;50.240;14.302;2023-12-20T06:30:55;1.50;;;0.93;;
76593;SDS011;65482;50.240;14.302;2023-12-20T06:33:22;1.48;;;1.00;;
76593;SDS011;65482;50.240;14.302;2023-12-20T06:35:49;2.33;;;1.48;;
76593;SDS011;65482;50.240;14.302;2023-12-20T06:38:15;1.60;;;1.10;;
76593;SDS011;65482;50.240;14.302;2023-12-20T06:40:41;1.83;;;1.13;;
76593;SDS011;65482;50.240;14.302;2023-12-20T06:43:08;2.10;;;1.15;;
76593;SDS011;65482;50.240;14.302;2023-12-20T06:45:33;1.73;;;1.20;;
76593;SDS011;65482;50.240;14.302;2023-12-20T06:48:02;2.55;;;1.33;;
76593;SDS011;65482;50.240;14.302;2023-12-20T06:50:27;1.55;;;1.20;;
76593;SDS011;65482;50.240;14.302;2023-12-20T06:52:55;3.58;;;1.30;;
76593;SDS011;65482;50.240;14.302;2023-12-20T06:55:21;2.40;;;1.05;;
76593;SDS011;65482;50.240;14.302;2023-12-20T06:57:49;3.70;;;1.40;;
76593;SDS011;65482;50.240;14.302;2023-12-20T07:00:14;2.03;;;1.27;;
76593;SDS011;65482;50.240;14.302;2023-12-20T07:02:41;1.52;;;1.10;;
76593;SDS011;65482;50.240;14.302;2023-12-20T07:05:06;1.80;;;1.05;;
76593;SDS011;65482;50.240;14.302;2023-12-20T07:07:33;2.38;;;1.35;;
76593;SDS011;65482;50.240;14.302;2023-12-20T07:09:59;2.30;;;1.30;;
76593;SDS011;65482;50.240;14.302;2023-12-20T07:12:24;1.75;;;1.20;;
76593;SDS011;65482;50.240;14.302;2023-12-20T07:14:50;2.00;;;1.10;;
76593;SDS011;65482;50.240;14.302;2023-12-20T07:17:15;1.60;;;1.08;;
76593;SDS011;65482;50.240;14.302;2023-12-20T07:19:41;1.45;;;1.05;;
76593;SDS011;65482;50.240;14.302;2023-12-20T07:22:07;2.97;;;1.20;;
76593;SDS011;65482;50.240;14.302;2023-12-20T07:24:33;2.42;;;1.30;;
76593;SDS011;65482;50.240;14.302;2023-12-20T07:26:59;1.70;;;1.08;;
76593;SDS011;65482;50.240;14.302;2023-12-20T07:29:25;1.42;;;1.08;;
76593;SDS011;65482;50.240;14.302;2023-12-20T07:31:52;1.73;;;1.05;;
76593;SDS011;65482;50.240;14.302;2023-12-20T07:34:19;1.67;;;0.90;;
76593;SDS011;65482;50.240;14.302;2023-12-20T07:36:47;2.15;;;1.10;;
76593;SDS011;65482;50.240;14.302;2023-12-20T07:39:13;2.47;;;1.30;;
76593;SDS011;65482;50.240;14.302;2023-12-20T07:41:39;2.92;;;1.33;;
76593;SDS011;65482;50.240;14.302;2023-12-20T07:44:05;2.97;;;1.67;;
76593;SDS011;65482;50.240;14.302;2023-12-20T07:46:32;3.28;;;1.85;;
76593;SDS011;65482;50.240;14.302;2023-12-20T07:48:57;3.65;;;1.92;;
76593;SDS011;65482;50.240;14.302;2023-12-20T07:51:25;3.58;;;1.83;;
76593;SDS011;65482;50.240;14.302;2023-12-20T07:53:51;3.45;;;1.60;;
76593;SDS011;65482;50.240;14.302;2023-12-20T07:56:18;1.95;;;1.10;;
76593;SDS011;65482;50.240;14.302;2023-12-20T07:58:45;1.88;;;1.10;;
76593;SDS011;65482;50.240;14.302;2023-12-20T08:01:15;1.85;;;1.40;;
76593;SDS011;65482;50.240;14.302;2023-12-20T08:03:41;2.17;;;1.10;;
76593;SDS011;65482;50.240;14.302;2023-12-20T08:06:07;1.67;;;0.90;;
76593;SDS011;65482;50.240;14.302;2023-12-20T08:08:32;1.23;;;0.90;;
76593;SDS011;65482;50.240;14.302;2023-12-20T08:10:58;2.33;;;1.35;;
76593;SDS011;65482;50.240;14.302;2023-12-20T08:13:26;3.60;;;1.25;;
76593;SDS011;65482;50.240;14.302;2023-12-20T08:15:52;3.17;;;1.60;;
76593;SDS011;65482;50.240;14.302;2023-12-20T08:18:19;6.13;;;2.08;;
76593;SDS011;65482;50.240;14.302;2023-12-20T08:20:47;4.72;;;1.73;;
76593;SDS011;65482;50.240;14.302;2023-12-20T08:23:14;3.20;;;1.85;;
76593;SDS011;65482;50.240;14.302;2023-12-20T08:25:41;3.13;;;1.60;;
76593;SDS011;65482;50.240;14.302;2023-12-20T08:28:07;2.30;;;1.60;;
76593;SDS011;65482;50.240;14.302;2023-12-20T08:30:35;2.47;;;1.23;;
76593;SDS011;65482;50.240;14.302;2023-12-20T08:33:01;3.13;;;1.10;;
76593;SDS011;65482;50.240;14.302;2023-12-20T08:35:27;2.22;;;1.48;;
76593;SDS011;65482;50.240;14.302;2023-12-20T08:37:53;2.65;;;1.35;;
76593;SDS011;65482;50.240;14.302;2023-12-20T08:40:18;2.03;;;0.93;;
76593;SDS011;65482;50.240;14.302;2023-12-20T08:42:45;1.20;;;0.70;;
76593;SDS011;65482;50.240;14.302;2023-12-20T08:45:11;1.20;;;0.80;;
76593;SDS011;65482;50.240;14.302;2023-12-20T08:47:37;1.67;;;1.10;;
76593;SDS011;65482;50.240;14.302;2023-12-20T08:50:02;1.48;;;0.80;;
76593;SDS011;65482;50.240;14.302;2023-12-20T08:52:30;1.85;;;1.10;;
76593;SDS011;65482;50.240;14.302;2023-12-20T08:54:55;1.13;;;1.00;;
76593;SDS011;65482;50.240;14.302;2023-12-20T08:57:21;1.05;;;0.82;;
76593;SDS011;65482;50.240;14.302;2023-12-20T08:59:48;2.30;;;1.00;;
76593;SDS011;65482;50.240;14.302;2023-12-20T09:02:15;1.90;;;1.10;;
76593;SDS011;65482;50.240;14.302;2023-12-20T09:04:41;1.55;;;1.00;;
76593;SDS011;65482;50.240;14.302;2023-12-20T09:07:07;1.38;;;0.93;;
76593;SDS011;65482;50.240;14.302;2023-12-20T09:09:32;1.15;;;0.75;;
76593;SDS011;65482;50.240;14.302;2023-12-20T09:11:59;1.83;;;1.17;;
76593;SDS011;65482;50.240;14.302;2023-12-20T09:14:24;5.20;;;1.20;;
76593;SDS011;65482;50.240;14.302;2023-12-20T09:16:50;3.22;;;0.98;;
76593;SDS011;65482;50.240;14.302;2023-12-20T09:19:19;2.35;;;1.08;;
76593;SDS011;65482;50.240;14.302;2023-12-20T09:21:45;1.75;;;0.90;;
76593;SDS011;65482;50.240;14.302;2023-12-20T09:24:10;2.00;;;0.93;;
76593;SDS011;65482;50.240;14.302;2023-12-20T09:26:36;1.60;;;1.10;;
76593;SDS011;65482;50.240;14.302;2023-12-20T09:29:01;1.42;;;0.98;;
76593;SDS011;65482;50.240;14.302;2023-12-20T09:31:27;1.52;;;1.02;;
76593;SDS011;65482;50.240;14.302;2023-12-20T09:33:53;1.75;;;1.10;;
76593;SDS011;65482;50.240;14.302;2023-12-20T09:36:18;1.67;;;1.10;;
76593;SDS011;65482;50.240;14.302;2023-12-20T09:38:44;2.75;;;1.27;;
76593;SDS011;65482;50.240;14.302;2023-12-20T09:41:09;2.65;;;1.50;;
76593;SDS011;65482;50.240;14.302;2023-12-20T09:43:35;3.40;;;1.08;;
76593;SDS011;65482;50.240;14.302;2023-12-20T09:46:04;1.85;;;1.20;;
76593;SDS011;65482;50.240;14.302;2023-12-20T09:48:32;1.95;;;1.00;;
76593;SDS011;65482;50.240;14.302;2023-12-20T09:50:58;2.10;;;1.15;;
76593;SDS011;65482;50.240;14.302;2023-12-20T09:53:23;1.23;;;0.90;;
76593;SDS011;65482;50.240;14.302;2023-12-20T09:55:56;1.40;;;1.02;;
76593;SDS011;65482;50.240;14.302;2023-12-20T09:58:25;2.95;;;1.20;;
76593;SDS011;65482;50.240;14.302;2023-12-20T10:00:50;1.45;;;0.88;;
76593;SDS011;65482;50.240;14.302;2023-12-20T10:03:16;1.92;;;1.17;;
76593;SDS011;65482;50.240;14.302;2023-12-20T10:05:44;3.70;;;1.15;;
76593;SDS011;65482;50.240;14.302;2023-12-20T10:08:10;2.97;;;1.27;;
76593;SDS011;65482;50.240;14.302;2023-12-20T10:10:36;1.98;;;1.08;;
76593;SDS011;65482;50.240;14.302;2023-12-20T10:13:05;1.38;;;1.10;;
76593;SDS011;65482;50.240;14.302;2023-12-20T10:15:32;1.45;;;1.23;;
76593;SDS011;65482;50.240;14.302;2023-12-20T10:17:59;4.50;;;2.03;;
76593;SDS011;65482;50.240;14.302;2023-12-20T10:20:26;4.90;;;1.65;;
76593;SDS011;65482;50.240;14.302;2023-12-20T10:22:53;6.88;;;2.72;;
76593;SDS011;65482;50.240;14.302;2023-12-20T10:25:20;4.50;;;1.85;;
76593;SDS011;65482;50.240;14.302;2023-12-20T10:27:46;6.05;;;2.30;;
76593;SDS011;65482;50.240;14.302;2023-12-20T10:30:13;5.82;;;2.60;;
76593;SDS011;65482;50.240;14.302;2023-12-20T10:32:39;11.43;;;3.25;;
76593;SDS011;65482;50.240;14.302;2023-12-20T10:35:06;13.73;;;3.70;;
76593;SDS011;65482;50.240;14.302;2023-12-20T10:37:34;14.50;;;3.85;;
76593;SDS011;65482;50.240;14.302;2023-12-20T10:40:01;5.82;;;1.98;;
76593;SDS011;65482;50.240;14.302;2023-12-20T10:42:29;15.32;;;3.67;;
76593;SDS011;65482;50.240;14.302;2023-12-20T10:44:55;4.70;;;1.70;;
76593;SDS011;65482;50.240;14.302;2023-12-20T10:47:21;3.45;;;1.70;;
76593;SDS011;65482;50.240;14.302;2023-12-20T10:49:48;4.25;;;2.10;;
76593;SDS011;65482;50.240;14.302;2023-12-20T10:52:15;8.35;;;2.90;;
76593;SDS011;65482;50.240;14.302;2023-12-20T10:54:42;7.32;;;2.80;;
76593;SDS011;65482;50.240;14.302;2023-12-20T10:57:07;3.25;;;1.75;;
76593;SDS011;65482;50.240;14.302;2023-12-20T10:59:35;4.05;;;1.80;;
76593;SDS011;65482;50.240;14.302;2023-12-20T11:02:02;6.30;;;2.25;;
76593;SDS011;65482;50.240;14.302;2023-12-20T11:04:39;2.00;;;1.10;;
76593;SDS011;65482;50.240;14.302;2023-12-20T11:09:56;4.20;;;2.20;;
76593;SDS011;65482;50.240;14.302;2023-12-20T11:12:28;2.00;;;1.45;;
76593;SDS011;65482;50.240;14.302;2023-12-20T11:15:02;1.83;;;1.10;;
76593;SDS011;65482;50.240;14.302;2023-12-20T11:17:29;2.33;;;1.10;;
76593;SDS011;65482;50.240;14.302;2023-12-20T11:22:26;1.80;;;1.20;;
76593;SDS011;65482;50.240;14.302;2023-12-20T11:24:54;2.78;;;1.20;;
76593;SDS011;65482;50.240;14.302;2023-12-20T11:27:21;1.55;;;1.10;;
76593;SDS011;65482;50.240;14.302;2023-12-20T11:29:53;3.15;;;1.55;;
76593;SDS011;65482;50.240;14.302;2023-12-20T11:34:51;1.50;;;1.13;;
76593;SDS011;65482;50.240;14.302;2023-12-20T11:37:19;2.83;;;1.25;;
76593;SDS011;65482;50.240;14.302;2023-12-20T11:39:45;3.33;;;1.58;;
76593;SDS011;65482;50.240;14.302;2023-12-20T11:42:10;4.60;;;1.80;;
76593;SDS011;65482;50.240;14.302;2023-12-20T11:44:36;4.43;;;2.03;;
76593;SDS011;65482;50.240;14.302;2023-12-20T11:47:02;6.15;;;2.25;;
76593;SDS011;65482;50.240;14.302;2023-12-20T11:49:29;3.08;;;1.52;;
76593;SDS011;65482;50.240;14.302;2023-12-20T11:51:56;2.08;;;1.40;;
76593;SDS011;65482;50.240;14.302;2023-12-20T11:54:22;3.88;;;2.20;;
76593;SDS011;65482;50.240;14.302;2023-12-20T11:56:48;2.67;;;1.60;;
76593;SDS011;65482;50.240;14.302;2023-12-20T11:59:14;2.83;;;1.65;;
76593;SDS011;65482;50.240;14.302;2023-12-20T12:01:40;2.25;;;1.25;;
76593;SDS011;65482;50.240;14.302;2023-12-20T12:04:12;2.20;;;1.20;;
76593;SDS011;65482;50.240;14.302;2023-12-20T12:06:39;2.33;;;1.20;;
76593;SDS011;65482;50.240;14.302;2023-12-20T12:09:04;3.15;;;1.50;;
76593;SDS011;65482;50.240;14.302;2023-12-20T12:11:30;1.90;;;1.23;;
76593;SDS011;65482;50.240;14.302;2023-12-20T12:13:57;1.65;;;1.30;;
76593;SDS011;65482;50.240;14.302;2023-12-20T12:16:23;3.47;;;1.60;;
76593;SDS011;65482;50.240;14.302;2023-12-20T12:18:58;2.33;;;1.35;;
76593;SDS011;65482;50.240;14.302;2023-12-20T12:21:24;2.70;;;1.17;;
76593;SDS011;65482;50.240;14.302;2023-12-20T12:23:50;1.67;;;1.30;;
76593;SDS011;65482;50.240;14.302;2023-12-20T12:26:16;1.88;;;1.10;;
76593;SDS011;65482;50.240;14.302;2023-12-20T12:28:42;1.50;;;1.20;;
76593;SDS011;65482;50.240;14.302;2023-12-20T12:31:08;2.85;;;1.40;;
76593;SDS011;65482;50.240;14.302;2023-12-20T12:33:34;3.05;;;1.42;;
76593;SDS011;65482;50.240;14.302;2023-12-20T12:36:00;3.42;;;1.48;;
76593;SDS011;65482;50.240;14.302;2023-12-20T12:38:28;2.58;;;1.30;;
76593;SDS011;65482;50.240;14.302;2023-12-20T12:40:54;4.45;;;1.90;;
76593;SDS011;65482;50.240;14.302;2023-12-20T12:43:20;3.80;;;1.80;;
76593;SDS011;65482;50.240;14.302;2023-12-20T12:45:47;5.65;;;1.77;;
76593;SDS011;65482;50.240;14.302;2023-12-20T12:48:14;1.50;;;1.20;;
76593;SDS011;65482;50.240;14.302;2023-12-20T12:50:40;2.00;;;1.30;;
76593;SDS011;65482;50.240;14.302;2023-12-20T12:53:06;2.75;;;1.70;;
76593;SDS011;65482;50.240;14.302;2023-12-20T12:55:32;2.15;;;1.40;;
76593;SDS011;65482;50.240;14.302;2023-12-20T12:57:59;2.70;;;1.40;;
76593;SDS011;65482;50.240;14.302;2023-12-20T13:00:24;1.98;;;1.40;;
76593;SDS011;65482;50.240;14.302;2023-12-20T13:02:51;3.03;;;1.33;;
76593;SDS011;65482;50.240;14.302;2023-12-20T13:05:17;1.88;;;1.38;;
76593;SDS011;65482;50.240;14.302;2023-12-20T13:07:43;2.42;;;1.30;;
76593;SDS011;65482;50.240;14.302;2023-12-20T13:10:10;3.10;;;1.70;;
76593;SDS011;65482;50.240;14.302;2023-12-20T13:12:36;3.72;;;1.60;;
76593;SDS011;65482;50.240;14.302;2023-12-20T13:15:02;2.58;;;1.40;;
76593;SDS011;65482;50.240;14.302;2023-12-20T13:17:31;2.17;;;1.50;;
76593;SDS011;65482;50.240;14.302;2023-12-20T13:19:57;4.68;;;1.20;;
76593;SDS011;65482;50.240;14.302;2023-12-20T13:22:23;2.35;;;1.30;;
76593;SDS011;65482;50.240;14.302;2023-12-20T13:24:48;2.92;;;1.50;;
76593;SDS011;65482;50.240;14.302;2023-12-20T13:27:14;3.47;;;1.50;;
76593;SDS011;65482;50.240;14.302;2023-12-20T13:29:40;3.85;;;1.70;;
76593;SDS011;65482;50.240;14.302;2023-12-20T13:32:05;1.80;;;1.33;;
76593;SDS011;65482;50.240;14.302;2023-12-20T13:34:31;2.45;;;1.27;;
76593;SDS011;65482;50.240;14.302;2023-12-20T13:36:57;3.78;;;1.40;;
76593;SDS011;65482;50.240;14.302;2023-12-20T13:39:23;2.10;;;1.20;;
76593;SDS011;65482;50.240;14.302;2023-12-20T13:41:49;3.15;;;1.25;;
76593;SDS011;65482;50.240;14.302;2023-12-20T13:44:14;2.22;;;1.30;;
76593;SDS011;65482;50.240;14.302;2023-12-20T13:46:40;3.95;;;1.35;;
76593;SDS011;65482;50.240;14.302;2023-12-20T13:49:07;2.75;;;1.30;;
76593;SDS011;65482;50.240;14.302;2023-12-20T13:51:32;3.75;;;1.40;;
76593;SDS011;65482;50.240;14.302;2023-12-20T13:53:58;3.80;;;1.83;;
76593;SDS011;65482;50.240;14.302;2023-12-20T13:56:25;1.20;;;1.00;;
76593;SDS011;65482;50.240;14.302;2023-12-20T13:58:51;2.15;;;1.40;;
76593;SDS011;65482;50.240;14.302;2023-12-20T14:01:16;2.47;;;1.52;;
76593;SDS011;65482;50.240;14.302;2023-12-20T14:03:42;6.75;;;3.97;;
76593;SDS011;65482;50.240;14.302;2023-12-20T14:06:08;2.20;;;1.48;;
76593;SDS011;65482;50.240;14.302;2023-12-20T14:08:33;2.58;;;1.27;;
76593;SDS011;65482;50.240;14.302;2023-12-20T14:10:59;2.88;;;1.50;;
76593;SDS011;65482;50.240;14.302;2023-12-20T14:13:26;2.30;;;1.70;;
76593;SDS011;65482;50.240;14.302;2023-12-20T14:15:53;2.78;;;1.55;;
76593;SDS011;65482;50.240;14.302;2023-12-20T14:18:20;2.92;;;1.70;;
76593;SDS011;65482;50.240;14.302;2023-12-20T14:20:45;3.08;;;2.20;;
76593;SDS011;65482;50.240;14.302;2023-12-20T14:23:12;3.13;;;1.60;;
76593;SDS011;65482;50.240;14.302;2023-12-20T14:25:40;3.83;;;1.30;;
76593;SDS011;65482;50.240;14.302;2023-12-20T14:28:07;4.60;;;1.50;;
76593;SDS011;65482;50.240;14.302;2023-12-20T14:30:33;3.50;;;1.70;;
76593;SDS011;65482;50.240;14.302;2023-12-20T14:33:00;3.33;;;2.00;;
76593;SDS011;65482;50.240;14.302;2023-12-20T14:35:26;8.38;;;3.08;;